createdAt,value
2016-05-06T00:00:01.007Z,71.2
2016-05-06T00:00:11.023Z,71.2
2016-05-06T00:00:21.025Z,71.3
2016-05-06T00:00:31.025Z,71.1
2016-05-06T00:00:41.025Z,71.7
2016-05-06T00:00:51.025Z,71.7
2016-05-06T00:01:01.041Z,71.5
2016-05-06T00:01:11.025Z,71.9
2016-05-06T00:01:21.043Z,71.7
2016-05-06T00:01:31.043Z,71.8
2016-05-06T00:01:41.043Z,71.2
2016-05-06T00:01:51.058Z,71.3
2016-05-06T00:02:01.043Z,71.2
2016-05-06T00:02:11.043Z,71
2016-05-06T00:02:21.078Z,71.1
2016-05-06T00:02:31.047Z,71.8
2016-05-06T00:02:41.062Z,71.5
2016-05-06T00:02:51.062Z,71.3
2016-05-06T00:03:01.062Z,71.6
2016-05-06T00:03:11.062Z,71.8
2016-05-06T00:03:20.925Z,71.3
2016-05-06T00:03:31.096Z,71.5
2016-05-06T00:03:41.065Z,71.9
2016-05-06T00:03:51.065Z,71.9
2016-05-06T00:04:01.081Z,71.9
2016-05-06T00:04:11.081Z,71.8
2016-05-06T00:04:21.083Z,71.7
2016-05-06T00:04:31.083Z,71.8
2016-05-06T00:04:41.098Z,72
2016-05-06T00:04:51.098Z,71.5
2016-05-06T00:05:00.942Z,71.6
2016-05-06T00:05:11.098Z,71.5
2016-05-06T00:05:21.100Z,71.6
2016-05-06T00:05:31.100Z,71.6
2016-05-06T00:05:41.100Z,71.6
2016-05-06T00:05:50.960Z,71.5
2016-05-06T00:06:01.116Z,71.5
2016-05-06T00:06:10.960Z,71.4
2016-05-06T00:06:20.963Z,71.6
2016-05-06T00:06:31.103Z,71.4
2016-05-06T00:06:40.963Z,71.5
2016-05-06T00:06:51.119Z,71.4
2016-05-06T00:07:01.119Z,71.9
2016-05-06T00:07:11.119Z,71.5
2016-05-06T00:07:20.824Z,71.6
2016-05-06T00:07:31.137Z,71.8
2016-05-06T00:07:41.137Z,71.7
2016-05-06T00:07:51.137Z,71.9
2016-05-06T00:08:01.137Z,71.8
2016-05-06T00:08:11.168Z,71.9
2016-05-06T00:08:21.141Z,71.7
2016-05-06T00:08:31.141Z,71.6
2016-05-06T00:08:41.156Z,71.7
2016-05-06T00:08:51.156Z,71.8
2016-05-06T00:09:01.141Z,71.8
2016-05-06T00:09:11.156Z,71.5
2016-05-06T00:09:21.158Z,71.5
2016-05-06T00:09:31.158Z,71.5
2016-05-06T00:09:41.158Z,71.8
2016-05-06T00:09:51.158Z,71.5
2016-05-06T00:10:01.158Z,71.9
2016-05-06T00:10:10.877Z,71.8
2016-05-06T00:10:21.193Z,71.8
2016-05-06T00:10:31.177Z,71.8
2016-05-06T00:10:41.021Z,72.2
2016-05-06T00:10:51.036Z,71.9
2016-05-06T00:11:01.349Z,71.8
2016-05-06T00:11:11.193Z,72
2016-05-06T00:11:21.195Z,72
2016-05-06T00:11:31.210Z,72
2016-05-06T00:11:41.195Z,71.9
2016-05-06T00:11:51.038Z,72
2016-05-06T00:12:01.195Z,71.7
2016-05-06T00:12:11.054Z,72.1
2016-05-06T00:12:22.761Z,72
2016-05-06T00:12:31.214Z,72.1
2016-05-06T00:12:41.058Z,72.2
2016-05-06T00:12:52.370Z,72.2
2016-05-06T00:13:01.074Z,71.9
2016-05-06T00:13:11.214Z,72.1
2016-05-06T00:13:21.232Z,72.2
2016-05-06T00:13:31.232Z,71.8
2016-05-06T00:13:41.232Z,71.9
2016-05-06T00:13:51.232Z,71.8
2016-05-06T00:14:01.232Z,71.8
2016-05-06T00:14:11.216Z,71.9
2016-05-06T00:14:21.235Z,71.8
2016-05-06T00:14:31.079Z,71.9
2016-05-06T00:14:41.235Z,71.9
2016-05-06T00:14:51.235Z,72.2
2016-05-06T00:15:01.235Z,71.9
2016-05-06T00:15:11.235Z,72
2016-05-06T00:15:21.252Z,71.9
2016-05-06T00:15:31.096Z,72.5
2016-05-06T00:15:41.252Z,72.6
2016-05-06T00:15:51.252Z,72.3
2016-05-06T00:16:01.252Z,72.4
2016-05-06T00:16:11.096Z,72.3
2016-05-06T00:16:21.287Z,72.4
2016-05-06T00:16:31.255Z,72.6
2016-05-06T00:16:41.271Z,72.2
2016-05-06T00:16:51.271Z,72.5
2016-05-06T00:17:01.271Z,72.4
2016-05-06T00:17:11.271Z,72.2
2016-05-06T00:17:21.117Z,72.9
2016-05-06T00:17:31.273Z,72.3
2016-05-06T00:17:41.273Z,72.3
2016-05-06T00:17:51.273Z,72.3
2016-05-06T00:18:01.289Z,72.3
2016-05-06T00:18:11.289Z,72.4
2016-05-06T00:18:21.293Z,72.8
2016-05-06T00:18:31.293Z,72.7
2016-05-06T00:18:41.324Z,72.6
2016-05-06T00:18:51.308Z,72.7
2016-05-06T00:19:01.308Z,72.7
2016-05-06T00:19:11.308Z,72.8
2016-05-06T00:19:21.154Z,72.9
2016-05-06T00:19:31.326Z,72.3
2016-05-06T00:19:41.310Z,72.4
2016-05-06T00:19:51.154Z,72.5
2016-05-06T00:20:01.310Z,72.3
2016-05-06T00:20:11.326Z,72.5
2016-05-06T00:20:21.328Z,72.9
2016-05-06T00:20:31.337Z,72.7
2016-05-06T00:20:41.181Z,72.7
2016-05-06T00:20:51.337Z,72.7
2016-05-06T00:21:01.337Z,72.7
2016-05-06T00:21:11.337Z,72.7
2016-05-06T00:21:21.341Z,72.8
2016-05-06T00:21:31.341Z,72.7
2016-05-06T00:21:41.341Z,72.8
2016-05-06T00:21:51.200Z,72.6
2016-05-06T00:22:01.356Z,72.6
2016-05-06T00:22:11.341Z,72.8
2016-05-06T00:22:21.343Z,72.6
2016-05-06T00:22:31.358Z,72.7
2016-05-06T00:22:41.358Z,72.7
2016-05-06T00:22:51.218Z,72.9
2016-05-06T00:23:01.358Z,72.8
2016-05-06T00:23:11.358Z,72.6
2016-05-06T00:23:21.361Z,72.8
2016-05-06T00:23:31.377Z,72.6
2016-05-06T00:23:41.377Z,72.6
2016-05-06T00:23:51.377Z,72.4
2016-05-06T00:24:01.393Z,72.5
2016-05-06T00:24:11.393Z,72.7
2016-05-06T00:24:21.379Z,72.5
2016-05-06T00:24:31.379Z,72.5
2016-05-06T00:24:41.379Z,72.5
2016-05-06T00:24:51.395Z,72.5
2016-05-06T00:25:01.379Z,72.6
2016-05-06T00:25:11.238Z,72.5
2016-05-06T00:25:21.273Z,72.8
2016-05-06T00:25:31.429Z,72.9
2016-05-06T00:25:41.507Z,72.8
2016-05-06T00:25:51.648Z,72.6
2016-05-06T00:26:01.257Z,72.7
2016-05-06T00:26:11.398Z,72.6
2016-05-06T00:26:21.416Z,72.8
2016-05-06T00:26:31.416Z,72.8
2016-05-06T00:26:41.416Z,72.7
2016-05-06T00:26:51.276Z,72.7
2016-05-06T00:27:01.416Z,73.1
2016-05-06T00:27:11.276Z,73.1
2016-05-06T00:27:21.263Z,73.2
2016-05-06T00:27:31.279Z,73.2
2016-05-06T00:27:41.435Z,73
2016-05-06T00:27:51.435Z,73.2
2016-05-06T00:28:01.279Z,73.2
2016-05-06T00:28:11.435Z,73.3
2016-05-06T00:28:21.296Z,73.2
2016-05-06T00:28:31.437Z,73.2
2016-05-06T00:28:41.296Z,73.3
2016-05-06T00:28:51.453Z,73.2
2016-05-06T00:29:01.453Z,73
2016-05-06T00:29:11.453Z,73.2
2016-05-06T00:29:21.456Z,73.4
2016-05-06T00:29:31.456Z,73.1
2016-05-06T00:29:41.456Z,73.5
2016-05-06T00:29:51.456Z,73.2
2016-05-06T00:30:01.471Z,73.7
2016-05-06T00:30:11.471Z,73.5
2016-05-06T00:30:21.474Z,73.5
2016-05-06T00:30:31.474Z,73.1
2016-05-06T00:30:41.490Z,73.4
2016-05-06T00:30:51.490Z,73
2016-05-06T00:31:01.474Z,73.2
2016-05-06T00:31:11.474Z,73.2
2016-05-06T00:31:21.492Z,73.2
2016-05-06T00:31:31.179Z,73.1
2016-05-06T00:31:41.492Z,73
2016-05-06T00:31:51.336Z,73.1
2016-05-06T00:32:01.492Z,73
2016-05-06T00:32:11.507Z,73.1
2016-05-06T00:32:21.510Z,73.2
2016-05-06T00:32:31.339Z,73.3
2016-05-06T00:32:41.510Z,73.4
2016-05-06T00:32:51.510Z,73.8
2016-05-06T00:33:01.510Z,73.4
2016-05-06T00:33:11.510Z,73.5
2016-05-06T00:33:21.529Z,73.2
2016-05-06T00:33:31.513Z,73.1
2016-05-06T00:33:41.513Z,73
2016-05-06T00:33:51.529Z,72.9
2016-05-06T00:34:01.373Z,72.9
2016-05-06T00:34:11.529Z,73
2016-05-06T00:34:21.531Z,73
2016-05-06T00:34:31.531Z,72.9
2016-05-06T00:34:41.547Z,73.1
2016-05-06T00:34:51.390Z,73
2016-05-06T00:35:01.547Z,73.1
2016-05-06T00:35:11.531Z,73
2016-05-06T00:35:21.535Z,73.1
2016-05-06T00:35:31.394Z,73
2016-05-06T00:35:41.394Z,73.3
2016-05-06T00:35:51.551Z,73.2
2016-05-06T00:36:01.551Z,73.5
2016-05-06T00:36:11.566Z,73.4
2016-05-06T00:36:21.568Z,73.5
2016-05-06T00:36:31.412Z,73.7
2016-05-06T00:36:41.412Z,73.8
2016-05-06T00:36:51.568Z,73.5
2016-05-06T00:37:01.584Z,73.7
2016-05-06T00:37:11.584Z,73.7
2016-05-06T00:37:21.586Z,73.6
2016-05-06T00:37:31.430Z,73.7
2016-05-06T00:37:41.570Z,73.8
2016-05-06T00:37:51.570Z,73.8
2016-05-06T00:38:01.570Z,74
2016-05-06T00:38:11.445Z,73.7
2016-05-06T00:38:21.589Z,73.7
2016-05-06T00:38:31.589Z,73.6
2016-05-06T00:38:41.605Z,73.9
2016-05-06T00:38:51.589Z,73.7
2016-05-06T00:39:01.605Z,73.9
2016-05-06T00:39:11.589Z,73.8
2016-05-06T00:39:21.608Z,73.7
2016-05-06T00:39:31.451Z,73.8
2016-05-06T00:39:41.608Z,73.9
2016-05-06T00:39:51.608Z,74.1
2016-05-06T00:40:01.608Z,73.7
2016-05-06T00:40:11.623Z,73.9
2016-05-06T00:40:21.656Z,73.9
2016-05-06T00:40:31.610Z,73.8
2016-05-06T00:40:42.203Z,73.7
2016-05-06T00:40:51.813Z,73.8
2016-05-06T00:41:01.891Z,73.7
2016-05-06T00:41:11.469Z,73.7
2016-05-06T00:41:21.644Z,73.8
2016-05-06T00:41:31.644Z,73.7
2016-05-06T00:41:41.644Z,73.8
2016-05-06T00:41:51.644Z,73.7
2016-05-06T00:42:01.488Z,73.5
2016-05-06T00:42:11.659Z,73.5
2016-05-06T00:42:21.491Z,73.6
2016-05-06T00:42:31.647Z,73.8
2016-05-06T00:42:41.647Z,73.8
2016-05-06T00:42:51.662Z,73.9
2016-05-06T00:43:01.662Z,73.8
2016-05-06T00:43:11.662Z,73.9
2016-05-06T00:43:21.665Z,73.9
2016-05-06T00:43:31.665Z,73.9
2016-05-06T00:43:41.665Z,74.2
2016-05-06T00:43:51.369Z,74.3
2016-05-06T00:44:01.681Z,73.7
2016-05-06T00:44:11.697Z,74.4
2016-05-06T00:44:21.683Z,74.4
2016-05-06T00:44:31.683Z,73.3
2016-05-06T00:44:41.683Z,74.5
2016-05-06T00:44:51.683Z,74.4
2016-05-06T00:45:01.527Z,74.5
2016-05-06T00:45:11.683Z,73.9
2016-05-06T00:45:21.702Z,74.4
2016-05-06T00:45:31.717Z,74.4
2016-05-06T00:45:41.702Z,74.7
2016-05-06T00:45:51.702Z,74.1
2016-05-06T00:46:01.702Z,74
2016-05-06T00:46:11.702Z,74.2
2016-05-06T00:46:21.547Z,74.3
2016-05-06T00:46:31.719Z,74
2016-05-06T00:46:41.704Z,74
2016-05-06T00:46:51.719Z,74.2
2016-05-06T00:47:01.735Z,74.2
2016-05-06T00:47:11.563Z,74.1
2016-05-06T00:47:21.722Z,74.2
2016-05-06T00:47:31.582Z,74
2016-05-06T00:47:41.722Z,74.2
2016-05-06T00:47:51.722Z,74.1
2016-05-06T00:48:01.738Z,74.1
2016-05-06T00:48:11.738Z,74.1
2016-05-06T00:48:21.585Z,74
2016-05-06T00:48:31.741Z,74.3
2016-05-06T00:48:41.585Z,74.4
2016-05-06T00:48:51.741Z,74.1
2016-05-06T00:49:01.741Z,74.5
2016-05-06T00:49:11.741Z,74.4
2016-05-06T00:49:21.760Z,74
2016-05-06T00:49:31.603Z,74.4
2016-05-06T00:49:41.760Z,74.3
2016-05-06T00:49:51.760Z,74
2016-05-06T00:50:01.760Z,74
2016-05-06T00:50:11.760Z,74.2
2016-05-06T00:50:21.762Z,74.2
2016-05-06T00:50:31.605Z,73.8
2016-05-06T00:50:41.777Z,74.3
2016-05-06T00:50:51.621Z,74.2
2016-05-06T00:51:01.621Z,74.2
2016-05-06T00:51:11.621Z,74.2
2016-05-06T00:51:21.780Z,74.2
2016-05-06T00:51:31.780Z,74.3
2016-05-06T00:51:41.780Z,74.7
2016-05-06T00:51:51.640Z,74.3
2016-05-06T00:52:01.796Z,74.3
2016-05-06T00:52:11.796Z,74.1
2016-05-06T00:52:21.643Z,74.2
2016-05-06T00:52:31.799Z,74.3
2016-05-06T00:52:41.799Z,74.3
2016-05-06T00:52:51.799Z,74.6
2016-05-06T00:53:01.643Z,74.3
2016-05-06T00:53:11.814Z,74.5
2016-05-06T00:53:21.817Z,74.7
2016-05-06T00:53:31.817Z,74.8
2016-05-06T00:53:41.817Z,74.7
2016-05-06T00:53:51.817Z,74.6
2016-05-06T00:54:01.817Z,74.7
2016-05-06T00:54:11.817Z,74.6
2016-05-06T00:55:52.572Z,74.6
2016-05-06T00:55:57.041Z,75
2016-05-06T00:56:07.463Z,75
2016-05-06T00:56:17.135Z,74.9
2016-05-06T00:56:26.982Z,75
2016-05-06T00:56:37.154Z,74.6
2016-05-06T00:56:47.169Z,74.9
2016-05-06T00:56:57.138Z,74.7
2016-05-06T00:57:07.154Z,74.7
2016-05-06T00:57:17.154Z,75.1
2016-05-06T00:57:27.156Z,74.9
2016-05-06T00:57:37.171Z,74.9
2016-05-06T00:57:47.156Z,75
2016-05-06T00:57:57.171Z,75.2
2016-05-06T00:58:07.156Z,75
2016-05-06T00:58:17.015Z,74.9
2016-05-06T00:58:27.174Z,74.9
2016-05-06T00:58:37.174Z,74.9
2016-05-06T00:58:47.174Z,74.9
2016-05-06T00:58:57.190Z,75
2016-05-06T00:59:07.034Z,74.9
2016-05-06T00:59:17.174Z,75
2016-05-06T00:59:27.192Z,75
2016-05-06T00:59:37.192Z,75
2016-05-06T00:59:47.192Z,74.4
2016-05-06T00:59:57.207Z,74.5
2016-05-06T01:00:07.051Z,74.7
2016-05-06T01:00:17.207Z,74.7
2016-05-06T01:00:27.211Z,74.4
2016-05-06T01:00:37.211Z,75
2016-05-06T01:00:47.196Z,75
2016-05-06T01:00:57.071Z,74.6
2016-05-06T01:01:07.211Z,75
2016-05-06T01:01:17.211Z,75
2016-05-06T01:01:27.213Z,74.9
2016-05-06T01:01:37.229Z,75.2
2016-05-06T01:01:47.213Z,75.1
2016-05-06T01:01:57.073Z,74.9
2016-05-06T01:02:07.073Z,75.1
2016-05-06T01:02:17.073Z,74.8
2016-05-06T01:02:27.076Z,75
2016-05-06T01:02:37.232Z,74.8
2016-05-06T01:02:47.091Z,74.9
2016-05-06T01:02:57.232Z,74.7
2016-05-06T01:03:07.232Z,74.7
2016-05-06T01:03:17.232Z,75
2016-05-06T01:03:27.250Z,75.2
2016-05-06T01:03:37.234Z,75.1
2016-05-06T01:03:47.250Z,75
2016-05-06T01:03:57.109Z,75
2016-05-06T01:04:07.250Z,75
2016-05-06T01:04:17.109Z,75
2016-05-06T01:04:27.112Z,74.9
2016-05-06T01:04:37.253Z,75
2016-05-06T01:04:47.284Z,74.7
2016-05-06T01:04:57.331Z,74.8
2016-05-06T01:05:07.268Z,74.7
2016-05-06T01:05:17.268Z,74.8
2016-05-06T01:05:27.271Z,74.9
2016-05-06T01:05:37.131Z,74.9
2016-05-06T01:05:46.974Z,75
2016-05-06T01:05:57.271Z,74.8
2016-05-06T01:06:07.131Z,75
2016-05-06T01:06:17.146Z,75
2016-05-06T01:06:27.165Z,75.1
2016-05-06T01:06:37.134Z,75.3
2016-05-06T01:06:47.306Z,75.6
2016-05-06T01:06:57.290Z,75.7
2016-05-06T01:07:07.290Z,75.7
2016-05-06T01:07:17.306Z,75.6
2016-05-06T01:07:27.151Z,75.7
2016-05-06T01:07:37.151Z,75.5
2016-05-06T01:07:47.323Z,75.7
2016-05-06T01:07:57.151Z,75.2
2016-05-06T01:08:07.308Z,75.2
2016-05-06T01:08:17.339Z,75.6
2016-05-06T01:08:27.326Z,75.3
2016-05-06T01:08:37.326Z,75.4
2016-05-06T01:08:47.326Z,75.5
2016-05-06T01:08:57.326Z,75.6
2016-05-06T01:09:07.326Z,75.4
2016-05-06T01:09:17.170Z,75.2
2016-05-06T01:09:27.345Z,75.3
2016-05-06T01:09:37.345Z,75.3
2016-05-06T01:09:47.173Z,75.3
2016-05-06T01:09:57.329Z,75.1
2016-05-06T01:10:07.345Z,75.1
2016-05-06T01:10:18.485Z,75.2
2016-05-06T01:10:28.425Z,75.3
2016-05-06T01:10:37.425Z,75.2
2016-05-06T01:10:47.847Z,75.2
2016-05-06T01:10:57.362Z,75.3
2016-05-06T01:11:07.675Z,75.4
2016-05-06T01:11:17.362Z,75.3
2016-05-06T01:11:27.365Z,75.6
2016-05-06T01:11:37.365Z,75.7
2016-05-06T01:11:47.365Z,75.3
2016-05-06T01:11:57.365Z,75.6
2016-05-06T01:12:07.365Z,75.4
2016-05-06T01:12:17.365Z,75.6
2016-05-06T01:12:27.367Z,75.6
2016-05-06T01:12:37.383Z,75.7
2016-05-06T01:12:47.383Z,75.9
2016-05-06T01:12:57.383Z,75.8
2016-05-06T01:13:07.399Z,75.9
2016-05-06T01:13:17.399Z,75.4
2016-05-06T01:13:27.387Z,75.5
2016-05-06T01:13:37.387Z,75.7
2016-05-06T01:13:47.403Z,75.8
2016-05-06T01:13:57.418Z,75.5
2016-05-06T01:14:07.403Z,75.6
2016-05-06T01:14:17.262Z,75.6
2016-05-06T01:14:27.405Z,75.6
2016-05-06T01:14:37.405Z,75.5
2016-05-06T01:14:47.420Z,76.1
2016-05-06T01:14:57.405Z,76.1
2016-05-06T01:15:07.420Z,76.2
2016-05-06T01:15:17.420Z,75.9
2016-05-06T01:15:27.423Z,76.3
2016-05-06T01:15:37.423Z,75.9
2016-05-06T01:15:47.439Z,76.1
2016-05-06T01:15:57.267Z,76
2016-05-06T01:16:07.439Z,76
2016-05-06T01:16:17.439Z,76.1
2016-05-06T01:16:27.425Z,76.1
2016-05-06T01:16:37.441Z,75.9
2016-05-06T01:16:47.441Z,76
2016-05-06T01:16:57.441Z,76.1
2016-05-06T01:17:07.441Z,76
2016-05-06T01:17:17.285Z,76
2016-05-06T01:17:27.444Z,75.9
2016-05-06T01:17:37.460Z,76
2016-05-06T01:17:47.444Z,76.3
2016-05-06T01:17:57.460Z,76.1
2016-05-06T01:18:07.303Z,76.2
2016-05-06T01:18:17.303Z,76.2
2016-05-06T01:18:27.463Z,76.2
2016-05-06T01:18:37.463Z,76.2
2016-05-06T01:18:47.463Z,76.2
2016-05-06T01:18:57.478Z,76.1
2016-05-06T01:19:07.478Z,75.8
2016-05-06T01:19:17.509Z,75.9
2016-05-06T01:19:27.481Z,76
2016-05-06T01:19:37.325Z,75.9
2016-05-06T01:19:47.481Z,75.9
2016-05-06T01:19:57.481Z,75.9
2016-05-06T01:20:07.497Z,76.2
2016-05-06T01:20:17.497Z,76.2
2016-05-06T01:20:27.343Z,76.1
2016-05-06T01:20:37.499Z,76.1
2016-05-06T01:20:47.499Z,76.2
2016-05-06T01:20:57.499Z,76.1
2016-05-06T01:21:07.499Z,76.1
2016-05-06T01:21:17.374Z,76.1
2016-05-06T01:21:27.516Z,75.7
2016-05-06T01:21:37.516Z,76.4
2016-05-06T01:21:47.391Z,76.2
2016-05-06T01:21:57.532Z,76.2
2016-05-06T01:22:07.532Z,76.6
2016-05-06T01:22:17.360Z,76.5
2016-05-06T01:22:27.380Z,76.6
2016-05-06T01:22:37.536Z,76.5
2016-05-06T01:22:47.536Z,76.6
2016-05-06T01:22:57.536Z,76.3
2016-05-06T01:23:07.536Z,76.3
2016-05-06T01:23:17.536Z,76.5
2016-05-06T01:23:27.538Z,76.2
2016-05-06T01:23:37.538Z,76.4
2016-05-06T01:23:47.538Z,76.3
2016-05-06T01:23:57.538Z,76.4
2016-05-06T01:24:07.554Z,76.3
2016-05-06T01:24:17.554Z,76.5
2016-05-06T01:24:27.557Z,76.3
2016-05-06T01:24:37.557Z,76.4
2016-05-06T01:24:47.572Z,76.5
2016-05-06T01:24:57.557Z,76.3
2016-05-06T01:25:07.557Z,76.6
2016-05-06T01:25:18.041Z,76.4
2016-05-06T01:25:27.684Z,76.4
2016-05-06T01:25:37.574Z,76.3
2016-05-06T01:25:47.965Z,76.4
2016-05-06T01:25:57.449Z,76.5
2016-05-06T01:26:07.965Z,76.5
2016-05-06T01:26:17.574Z,76.5
2016-05-06T01:26:27.578Z,76.5
2016-05-06T01:26:37.625Z,76.3
2016-05-06T01:26:47.594Z,76.5
2016-05-06T01:26:57.594Z,76.4
2016-05-06T01:27:07.438Z,76.7
2016-05-06T01:27:17.453Z,76.7
2016-05-06T01:27:27.440Z,76.5
2016-05-06T01:27:37.596Z,76.9
2016-05-06T01:27:47.440Z,76.9
2016-05-06T01:27:57.596Z,76.6
2016-05-06T01:28:07.596Z,76.6
2016-05-06T01:28:17.612Z,76.7
2016-05-06T01:28:27.615Z,76.7
2016-05-06T01:28:37.615Z,76.7
2016-05-06T01:28:47.458Z,76.8
2016-05-06T01:28:57.474Z,76.9
2016-05-06T01:29:07.615Z,76.4
2016-05-06T01:29:17.630Z,76.4
2016-05-06T01:29:27.632Z,76.5
2016-05-06T01:29:37.632Z,76.5
2016-05-06T01:29:47.617Z,76.4
2016-05-06T01:29:57.476Z,76.5
2016-05-06T01:30:07.476Z,76.6
2016-05-06T01:30:17.632Z,76.6
2016-05-06T01:30:27.635Z,76.5
2016-05-06T01:30:37.651Z,76.8
2016-05-06T01:30:47.495Z,76.5
2016-05-06T01:30:57.651Z,76.7
2016-05-06T01:31:07.651Z,76.7
2016-05-06T01:31:17.495Z,76.5
2016-05-06T01:31:27.654Z,77
2016-05-06T01:31:37.498Z,76.9
2016-05-06T01:31:47.669Z,77.1
2016-05-06T01:31:57.779Z,77
2016-05-06T01:32:07.685Z,76.9
2016-05-06T01:32:17.669Z,77
2016-05-06T01:32:27.671Z,76.9
2016-05-06T01:32:37.515Z,76.8
2016-05-06T01:32:47.671Z,76.8
2016-05-06T01:32:57.515Z,76.8
2016-05-06T01:33:07.671Z,76.8
2016-05-06T01:33:17.687Z,77
2016-05-06T01:33:27.690Z,76.8
2016-05-06T01:33:37.690Z,77
2016-05-06T01:33:47.690Z,77
2016-05-06T01:33:57.690Z,77
2016-05-06T01:34:07.534Z,77
2016-05-06T01:34:17.690Z,76.9
2016-05-06T01:34:27.708Z,76.9
2016-05-06T01:34:37.692Z,77
2016-05-06T01:34:47.692Z,77
2016-05-06T01:34:57.551Z,77
2016-05-06T01:35:07.708Z,77
2016-05-06T01:35:17.708Z,76.9
2016-05-06T01:35:27.712Z,77.1
2016-05-06T01:35:37.712Z,76.9
2016-05-06T01:35:47.727Z,76.9
2016-05-06T01:35:57.727Z,76.9
2016-05-06T01:36:07.712Z,76.9
2016-05-06T01:36:17.415Z,77
2016-05-06T01:36:27.729Z,77
2016-05-06T01:36:37.729Z,76.8
2016-05-06T01:36:47.729Z,77
2016-05-06T01:36:57.573Z,76.9
2016-05-06T01:37:07.745Z,76.9
2016-05-06T01:37:17.729Z,77
2016-05-06T01:37:27.591Z,77.4
2016-05-06T01:37:37.747Z,77
2016-05-06T01:37:47.606Z,77.1
2016-05-06T01:37:57.747Z,77
2016-05-06T01:38:07.747Z,77
2016-05-06T01:38:17.747Z,77
2016-05-06T01:38:27.766Z,77.4
2016-05-06T01:38:37.766Z,76.9
2016-05-06T01:38:47.766Z,76.9
2016-05-06T01:38:57.609Z,76.9
2016-05-06T01:39:07.750Z,77
2016-05-06T01:39:17.750Z,77.1
2016-05-06T01:39:27.770Z,77.3
2016-05-06T01:39:37.613Z,77.4
2016-05-06T01:39:47.770Z,77
2016-05-06T01:39:57.629Z,77.1
2016-05-06T01:40:07.770Z,77.1
2016-05-06T01:40:17.645Z,77.3
2016-05-06T01:40:27.881Z,77
2016-05-06T01:40:37.787Z,76.9
2016-05-06T01:40:47.803Z,77.4
2016-05-06T01:40:57.647Z,77.3
2016-05-06T01:41:07.647Z,77.3
2016-05-06T01:41:17.803Z,77.5
2016-05-06T01:41:27.805Z,77.3
2016-05-06T01:41:37.805Z,77.3
2016-05-06T01:41:47.805Z,77.3
2016-05-06T01:41:57.664Z,77.5
2016-05-06T01:42:07.805Z,77.4
2016-05-06T01:42:17.805Z,77.4
2016-05-06T01:42:27.668Z,77.3
2016-05-06T01:42:37.809Z,77.4
2016-05-06T01:42:47.653Z,77.5
2016-05-06T01:42:57.824Z,77.5
2016-05-06T01:43:07.668Z,77.3
2016-05-06T01:43:17.824Z,77.5
2016-05-06T01:43:27.670Z,77.3
2016-05-06T01:43:37.826Z,77.4
2016-05-06T01:43:47.826Z,77.2
2016-05-06T01:43:57.686Z,77.8
2016-05-06T01:44:07.686Z,77.3
2016-05-06T01:44:17.842Z,77.3
2016-05-06T01:44:27.720Z,77.7
2016-05-06T01:44:37.689Z,77.3
2016-05-06T01:44:47.845Z,77.4
2016-05-06T01:44:57.845Z,77.8
2016-05-06T01:45:07.845Z,77.8
2016-05-06T01:45:17.861Z,77.5
2016-05-06T01:45:27.878Z,77.9
2016-05-06T01:45:37.863Z,77.8
2016-05-06T01:45:47.863Z,77.8
2016-05-06T01:45:57.863Z,77.8
2016-05-06T01:46:07.863Z,77.7
2016-05-06T01:46:17.863Z,77.8
2016-05-06T01:46:27.866Z,77.6
2016-05-06T01:46:37.725Z,77.6
2016-05-06T01:46:47.881Z,77.6
2016-05-06T01:46:57.881Z,77.6
2016-05-06T01:47:07.741Z,77.6
2016-05-06T01:47:17.741Z,77.7
2016-05-06T01:47:27.900Z,77.5
2016-05-06T01:47:37.884Z,77.9
2016-05-06T01:47:47.900Z,78.1
2016-05-06T01:47:57.603Z,77.9
2016-05-06T01:48:07.900Z,77.9
2016-05-06T01:48:17.900Z,77.5
2016-05-06T01:48:27.762Z,77.5
2016-05-06T01:48:37.903Z,77.5
2016-05-06T01:48:47.903Z,77.5
2016-05-06T01:48:57.903Z,77.5
2016-05-06T01:49:07.903Z,77.7
2016-05-06T01:49:17.903Z,78
2016-05-06T01:49:27.749Z,78
2016-05-06T01:49:37.921Z,77.5
2016-05-06T01:49:47.921Z,77.9
2016-05-06T01:49:57.921Z,77.8
2016-05-06T01:50:07.921Z,77.8
2016-05-06T01:50:17.921Z,77.8
2016-05-06T01:50:27.923Z,77.8
2016-05-06T01:50:37.782Z,78
2016-05-06T01:50:47.938Z,78
2016-05-06T01:50:57.938Z,77.7
2016-05-06T01:51:07.938Z,77.7
2016-05-06T01:51:17.798Z,77.9
2016-05-06T01:51:27.786Z,77.9
2016-05-06T01:51:37.958Z,77.9
2016-05-06T01:51:47.942Z,77.3
2016-05-06T01:51:57.942Z,78
2016-05-06T01:52:07.942Z,78.3
2016-05-06T01:52:17.802Z,78.1
2016-05-06T01:52:27.961Z,77.4
2016-05-06T01:52:37.961Z,77.2
2016-05-06T01:52:47.961Z,77.6
2016-05-06T01:52:57.961Z,78.1
2016-05-06T01:53:07.976Z,77.2
2016-05-06T01:53:17.664Z,77.4
2016-05-06T01:53:27.978Z,77.3
2016-05-06T01:53:37.978Z,77.4
2016-05-06T01:53:47.978Z,77.6
2016-05-06T01:53:57.682Z,77.6
2016-05-06T01:54:07.978Z,77.6
2016-05-06T01:54:17.978Z,77.8
2016-05-06T01:54:27.980Z,78.3
2016-05-06T01:54:37.840Z,77.3
2016-05-06T01:54:47.840Z,77.3
2016-05-06T01:54:57.996Z,78.2
2016-05-06T01:55:07.840Z,78.3
2016-05-06T01:55:17.855Z,77.4
2016-05-06T01:55:27.719Z,77.2
2016-05-06T01:55:38.000Z,78.3
2016-05-06T01:55:47.859Z,77.4
2016-05-06T01:55:57.703Z,77.4
2016-05-06T01:56:08.047Z,77.6
2016-05-06T01:56:18.016Z,77.7
2016-05-06T01:56:27.861Z,77.9
2016-05-06T01:56:38.018Z,77.9
2016-05-06T01:56:48.018Z,78
2016-05-06T01:56:58.018Z,78.3
2016-05-06T01:57:08.018Z,78.1
2016-05-06T01:57:18.018Z,78
2016-05-06T01:57:28.021Z,78.2
2016-05-06T01:57:38.052Z,77.9
2016-05-06T01:57:48.036Z,78.1
2016-05-06T01:57:58.036Z,78.2
2016-05-06T01:58:08.036Z,78
2016-05-06T01:58:18.036Z,77.9
2016-05-06T01:58:27.882Z,78.2
2016-05-06T01:58:38.054Z,78.1
2016-05-06T01:58:47.757Z,78.4
2016-05-06T01:58:58.054Z,77.9
2016-05-06T01:59:08.054Z,78.3
2016-05-06T01:59:18.054Z,78.3
2016-05-06T01:59:28.057Z,78.4
2016-05-06T01:59:38.057Z,78.4
2016-05-06T01:59:47.901Z,78.3
2016-05-06T01:59:58.057Z,78.2
2016-05-06T02:00:08.057Z,78.2
2016-05-06T02:00:17.916Z,78
2016-05-06T02:00:27.919Z,78.3
2016-05-06T02:00:38.076Z,78.4
2016-05-06T02:00:48.076Z,78.4
2016-05-06T02:00:58.060Z,78.7
2016-05-06T02:01:08.076Z,78.4
2016-05-06T02:01:18.076Z,78.3
2016-05-06T02:01:27.937Z,78.7
2016-05-06T02:01:38.109Z,78.7
2016-05-06T02:01:47.781Z,78.8
2016-05-06T02:01:58.093Z,78.8
2016-05-06T02:02:07.953Z,78.7
2016-05-06T02:02:18.109Z,78.7
2016-05-06T02:02:28.096Z,78.7
2016-05-06T02:02:38.096Z,78.7
2016-05-06T02:02:48.096Z,78.7
2016-05-06T02:02:58.112Z,78.8
2016-05-06T02:03:08.112Z,78.4
2016-05-06T02:03:18.112Z,78.4
2016-05-06T02:03:28.114Z,78.8
2016-05-06T02:03:38.114Z,78.5
2016-05-06T02:03:48.114Z,78.9
2016-05-06T02:03:58.114Z,78.6
2016-05-06T02:04:08.114Z,78.6
2016-05-06T02:04:18.129Z,78.6
2016-05-06T02:04:28.118Z,78.6
2016-05-06T02:04:38.133Z,78.9
2016-05-06T02:04:48.133Z,78.8
2016-05-06T02:04:58.133Z,78.9
2016-05-06T02:05:08.149Z,78.5
2016-05-06T02:05:18.133Z,78.9
2016-05-06T02:05:28.026Z,78.8
2016-05-06T02:05:38.151Z,78.8
2016-05-06T02:05:47.995Z,78.8
2016-05-06T02:05:58.151Z,78.8
2016-05-06T02:06:08.151Z,78.8
2016-05-06T02:06:18.151Z,78.6
2016-05-06T02:06:28.154Z,78.6
2016-05-06T02:06:37.998Z,78.4
2016-05-06T02:06:48.013Z,78.4
2016-05-06T02:06:58.185Z,78.7
2016-05-06T02:07:08.170Z,78.6
2016-05-06T02:07:18.045Z,78.6
2016-05-06T02:07:28.031Z,78.6
2016-05-06T02:07:38.172Z,78.5
2016-05-06T02:07:48.172Z,78.5
2016-05-06T02:07:58.015Z,78.5
2016-05-06T02:08:08.172Z,78.6
2016-05-06T02:08:18.031Z,78.5
2016-05-06T02:08:28.190Z,78.4
2016-05-06T02:08:38.190Z,78.6
2016-05-06T02:08:48.190Z,78.8
2016-05-06T02:08:58.190Z,78.5
2016-05-06T02:09:08.034Z,78.8
2016-05-06T02:09:18.190Z,78.8
2016-05-06T02:09:28.193Z,79.1
2016-05-06T02:09:38.193Z,79.3
2016-05-06T02:09:48.209Z,79.1
2016-05-06T02:09:58.209Z,79.1
2016-05-06T02:10:08.053Z,79
2016-05-06T02:10:18.068Z,78.9
2016-05-06T02:10:28.336Z,79
2016-05-06T02:10:38.242Z,78.6
2016-05-06T02:10:48.336Z,79
2016-05-06T02:10:59.039Z,79
2016-05-06T02:11:08.383Z,78.7
2016-05-06T02:11:18.227Z,79.2
2016-05-06T02:11:28.230Z,79.1
2016-05-06T02:11:38.230Z,79.1
2016-05-06T02:11:48.245Z,79.2
2016-05-06T02:11:58.245Z,78.7
2016-05-06T02:12:08.245Z,78.6
2016-05-06T02:12:18.276Z,79.3
2016-05-06T02:12:28.092Z,79.3
2016-05-06T02:12:38.264Z,79.4
2016-05-06T02:12:48.248Z,79.2
2016-05-06T02:12:58.248Z,79.3
2016-05-06T02:13:08.248Z,79.2
2016-05-06T02:13:18.264Z,79.3
2016-05-06T02:13:28.267Z,79.3
2016-05-06T02:13:38.251Z,79.1
2016-05-06T02:13:48.267Z,78.7
2016-05-06T02:13:58.267Z,78.6
2016-05-06T02:14:08.282Z,79.3
2016-05-06T02:14:18.267Z,79.2
2016-05-06T02:14:28.269Z,79.3
2016-05-06T02:14:38.113Z,79.3
2016-05-06T02:14:48.269Z,79.3
2016-05-06T02:14:58.269Z,79
2016-05-06T02:15:08.284Z,79.2
2016-05-06T02:15:18.284Z,79.3
2016-05-06T02:15:28.287Z,79.2